createdAt,value
2018-11-26T00:02:03.436Z,111.10
2018-11-26T00:04:31.558Z,113.17
2018-11-26T00:06:59.631Z,102.77
2018-11-26T00:09:27.713Z,89.90
2018-11-26T00:11:56.097Z,93.93
2018-11-26T00:14:24.237Z,76.70
2018-11-26T00:16:52.353Z,81.47
2018-11-26T00:19:20.463Z,83.40
2018-11-26T00:21:48.552Z,97.77
2018-11-26T00:24:16.631Z,93.87
2018-11-26T00:26:44.749Z,106.27
2018-11-26T00:29:12.858Z,105.27
2018-11-26T00:31:40.982Z,97.67
2018-11-26T00:34:09.072Z,90.33
2018-11-26T00:36:37.188Z,117.97
2018-11-26T00:39:07.829Z,109.57
2018-11-26T00:41:35.921Z,100.03
2018-11-26T00:44:04.038Z,128.17
2018-11-26T00:46:32.140Z,103.87
2018-11-26T00:49:00.227Z,99.47
2018-11-26T00:51:28.333Z,130.43
2018-11-26T00:53:56.425Z,104.77
2018-11-26T00:56:24.535Z,101.77
2018-11-26T00:58:52.619Z,113.00
2018-11-26T01:01:20.704Z,86.30
2018-11-26T01:03:48.816Z,124.77
2018-11-26T01:06:16.941Z,131.90
2018-11-26T01:08:45.042Z,115.60
2018-11-26T01:11:13.120Z,126.03
2018-11-26T01:13:41.204Z,125.87
2018-11-26T01:16:15.146Z,104.90
2018-11-26T01:18:43.248Z,102.23
2018-11-26T01:21:11.340Z,96.73
2018-11-26T01:23:39.424Z,112.10
2018-11-26T01:26:07.586Z,108.00
2018-11-26T01:28:35.697Z,111.70
2018-11-26T01:31:03.813Z,102.47
2018-11-26T01:33:31.919Z,129.63
2018-11-26T01:36:00.023Z,99.13
2018-11-26T01:38:28.146Z,102.90
2018-11-26T01:40:56.244Z,120.77
2018-11-26T01:43:24.384Z,100.43
2018-11-26T01:45:52.492Z,112.13
2018-11-26T01:48:20.601Z,117.87
2018-11-26T01:50:48.725Z,101.63
2018-11-26T01:53:16.866Z,120.93
2018-11-26T01:55:44.998Z,112.17
2018-11-26T01:58:13.145Z,103.87
2018-11-26T02:00:41.272Z,111.20
2018-11-26T02:03:09.449Z,112.63
2018-11-26T02:05:37.575Z,103.70
2018-11-26T02:08:06.480Z,105.60
2018-11-26T02:10:34.635Z,104.93
2018-11-26T02:13:02.766Z,95.77
2018-11-26T02:15:36.489Z,103.83
2018-11-26T02:18:04.654Z,110.70
2018-11-26T02:20:32.763Z,98.20
2018-11-26T02:23:00.907Z,96.47
2018-11-26T02:25:29.041Z,95.50
2018-11-26T02:27:57.159Z,116.53
2018-11-26T02:30:25.281Z,116.33
2018-11-26T02:32:53.426Z,112.83
2018-11-26T02:35:21.552Z,118.07
2018-11-26T02:37:51.786Z,114.37
2018-11-26T02:40:27.089Z,105.07
2018-11-26T02:42:55.208Z,130.70
2018-11-26T02:45:23.337Z,114.13
2018-11-26T02:47:51.467Z,100.03
2018-11-26T02:50:19.584Z,133.63
2018-11-26T02:52:47.721Z,109.23
2018-11-26T02:55:15.865Z,95.70
2018-11-26T02:57:43.984Z,107.53
2018-11-26T03:00:12.699Z,105.97
2018-11-26T03:02:40.835Z,114.27
2018-11-26T03:05:11.292Z,124.87
2018-11-26T03:07:39.417Z,123.77
2018-11-26T03:10:08.874Z,98.63
2018-11-26T03:12:37.660Z,129.43
2018-11-26T03:15:11.163Z,102.67
2018-11-26T03:17:39.610Z,127.10
2018-11-26T03:20:08.962Z,129.20
2018-11-26T03:22:37.076Z,139.07
2018-11-26T03:25:07.438Z,120.57
2018-11-26T03:27:35.560Z,122.53
2018-11-26T03:30:04.309Z,132.00
2018-11-26T03:32:32.446Z,131.97
2018-11-26T03:35:00.559Z,106.40
2018-11-26T03:37:28.693Z,119.63
2018-11-26T03:39:56.809Z,120.27
2018-11-26T03:42:24.944Z,109.17
2018-11-26T03:44:53.081Z,130.57
2018-11-26T03:47:21.209Z,136.87
2018-11-26T03:49:49.347Z,139.87
2018-11-26T03:52:17.476Z,128.60
2018-11-26T03:54:45.609Z,115.97
2018-11-26T03:57:13.725Z,115.63
2018-11-26T03:59:41.860Z,141.43
2018-11-26T04:02:09.980Z,115.27
2018-11-26T04:04:38.111Z,106.13
2018-11-26T04:07:06.716Z,114.47
2018-11-26T04:09:34.840Z,119.10
2018-11-26T04:12:02.972Z,115.40
2018-11-26T04:14:31.105Z,126.07
2018-11-26T04:17:02.436Z,121.23
2018-11-26T04:19:30.569Z,103.17
2018-11-26T04:21:58.691Z,97.37
2018-11-26T04:24:26.845Z,109.83
2018-11-26T04:26:54.992Z,100.53
2018-11-26T04:29:23.177Z,94.43
2018-11-26T04:31:51.311Z,100.77
2018-11-26T04:34:19.425Z,104.70
2018-11-26T04:36:47.580Z,106.30
2018-11-26T04:39:15.700Z,108.47
2018-11-26T04:41:43.824Z,95.93
2018-11-26T04:44:11.956Z,93.07
2018-11-26T04:46:40.097Z,101.90
2018-11-26T04:49:08.232Z,92.77
2018-11-26T04:51:36.353Z,83.17
2018-11-26T04:54:04.473Z,96.83
2018-11-26T04:56:32.593Z,88.13
2018-11-26T04:59:00.704Z,90.07
2018-11-26T05:01:28.880Z,92.97
2018-11-26T05:03:57.018Z,83.40
2018-11-26T05:06:25.158Z,87.40
2018-11-26T05:08:53.476Z,80.00
2018-11-26T05:11:21.596Z,88.23
2018-11-26T05:13:49.701Z,84.87
2018-11-26T05:16:17.840Z,95.67
2018-11-26T05:18:45.957Z,99.83
2018-11-26T05:21:14.095Z,88.43
2018-11-26T05:23:42.214Z,88.37
2018-11-26T05:26:10.332Z,86.00
2018-11-26T05:28:38.460Z,84.77
2018-11-26T05:31:08.044Z,87.73
2018-11-26T05:33:34.887Z,82.47
2018-11-26T05:36:03.017Z,73.57
2018-11-26T05:38:31.145Z,75.50
2018-11-26T05:40:59.276Z,82.33
2018-11-26T05:43:28.304Z,70.37
2018-11-26T05:45:56.434Z,67.93
2018-11-26T05:48:24.605Z,78.23
2018-11-26T05:50:52.740Z,75.47
2018-11-26T05:53:20.863Z,74.40
2018-11-26T05:55:49.022Z,69.73
2018-11-26T05:58:17.133Z,76.87
2018-11-26T06:00:45.436Z,65.30
2018-11-26T06:03:13.561Z,74.50
2018-11-26T06:05:41.692Z,67.93
2018-11-26T06:08:09.829Z,72.20
2018-11-26T06:10:37.954Z,74.20
2018-11-26T06:13:06.373Z,65.10
2018-11-26T06:15:34.692Z,77.70
2018-11-26T06:18:02.875Z,70.20
2018-11-26T06:20:30.990Z,70.37
2018-11-26T06:22:59.146Z,74.13
2018-11-26T06:25:27.287Z,70.17
2018-11-26T06:27:55.409Z,71.77
2018-11-26T06:30:23.533Z,78.17
2018-11-26T06:32:51.668Z,65.77
2018-11-26T06:35:21.921Z,63.40
2018-11-26T06:37:50.097Z,89.53
2018-11-26T06:40:18.221Z,72.30
2018-11-26T06:42:46.439Z,77.97
2018-11-26T06:45:20.722Z,71.80
2018-11-26T06:47:48.848Z,79.90
2018-11-26T06:50:18.150Z,71.33
2018-11-26T06:52:46.303Z,68.40
2018-11-26T06:55:16.539Z,81.07
2018-11-26T06:57:44.701Z,80.20
2018-11-26T07:00:14.748Z,81.20
2018-11-26T07:02:42.927Z,70.47
2018-11-26T07:05:15.369Z,77.20
2018-11-26T07:07:43.682Z,73.27
2018-11-26T07:10:12.541Z,77.20
2018-11-26T07:12:40.776Z,68.73
2018-11-26T07:15:11.560Z,74.67
2018-11-26T07:17:39.689Z,78.40
2018-11-26T07:20:09.550Z,73.13
2018-11-26T07:22:37.700Z,83.20
2018-11-26T07:25:08.969Z,84.50
2018-11-26T07:27:37.137Z,81.10
2018-11-26T07:30:08.905Z,68.03
2018-11-26T07:32:37.029Z,79.63
2018-11-26T07:35:06.371Z,82.60
2018-11-26T07:37:34.498Z,83.13
2018-11-26T07:40:02.642Z,67.90
2018-11-26T07:42:30.770Z,78.47
2018-11-26T07:44:58.880Z,79.83
2018-11-26T07:47:27.010Z,69.43
2018-11-26T07:49:55.124Z,74.73
2018-11-26T07:52:23.338Z,71.53
2018-11-26T07:54:51.484Z,72.80
2018-11-26T07:57:19.617Z,67.43
2018-11-26T07:59:47.734Z,70.90
2018-11-26T08:02:15.871Z,68.00
2018-11-26T08:04:44.005Z,65.70
2018-11-26T08:07:12.133Z,66.00
2018-11-26T08:09:40.260Z,65.80
2018-11-26T08:12:08.392Z,68.17
2018-11-26T08:14:36.526Z,72.90
2018-11-26T08:17:04.871Z,70.77
2018-11-26T08:19:32.981Z,76.07
2018-11-26T08:22:01.162Z,76.43
2018-11-26T08:24:29.289Z,77.33
2018-11-26T08:26:57.410Z,71.33
2018-11-26T08:29:25.647Z,70.30
2018-11-26T08:31:53.756Z,70.03
2018-11-26T08:34:21.886Z,72.00
2018-11-26T08:36:54.271Z,70.70
2018-11-26T08:39:26.693Z,76.33
2018-11-26T08:41:54.833Z,82.67
2018-11-26T08:44:28.192Z,80.23
2018-11-26T08:46:56.361Z,70.83
2018-11-26T08:49:27.058Z,66.57
2018-11-26T08:51:55.174Z,74.63
2018-11-26T08:54:23.300Z,73.70
2018-11-26T08:56:51.451Z,73.50
2018-11-26T08:59:19.572Z,82.37
2018-11-26T09:01:50.984Z,65.83
2018-11-26T09:04:20.493Z,66.23
2018-11-26T09:06:48.928Z,73.67
2018-11-26T09:09:17.064Z,68.40
2018-11-26T09:11:45.180Z,63.63
2018-11-26T09:14:13.376Z,61.90
2018-11-26T09:16:41.488Z,73.30
2018-11-26T09:19:09.614Z,64.10
2018-11-26T09:21:37.742Z,65.20
2018-11-26T09:24:05.864Z,61.50
2018-11-26T09:26:33.985Z,71.87
2018-11-26T09:29:02.133Z,71.33
2018-11-26T09:31:30.258Z,65.77
2018-11-26T09:33:58.380Z,74.53
2018-11-26T09:36:26.505Z,69.07
2018-11-26T09:38:54.613Z,65.30
2018-11-26T09:41:22.730Z,72.20
2018-11-26T09:43:50.860Z,65.57
2018-11-26T09:46:18.991Z,70.17
2018-11-26T09:48:47.111Z,62.20
2018-11-26T09:51:15.243Z,65.30
2018-11-26T09:53:43.368Z,58.60
2018-11-26T09:56:11.484Z,74.23
2018-11-26T09:58:39.601Z,64.73
2018-11-26T10:01:07.756Z,69.80
2018-11-26T10:03:35.875Z,66.63
2018-11-26T10:06:04.197Z,65.03
2018-11-26T10:08:32.382Z,66.63
2018-11-26T10:11:00.519Z,69.40
2018-11-26T10:13:28.628Z,64.40
2018-11-26T10:15:56.756Z,65.23
2018-11-26T10:18:24.881Z,65.70
2018-11-26T10:20:53.033Z,71.67
2018-11-26T10:23:21.142Z,74.73
2018-11-26T10:25:49.277Z,66.43
2018-11-26T10:28:17.386Z,83.27
2018-11-26T10:30:45.540Z,76.47
2018-11-26T10:33:14.808Z,78.90
2018-11-26T10:35:41.785Z,71.07
2018-11-26T10:38:09.900Z,74.73
2018-11-26T10:40:38.050Z,78.60
2018-11-26T10:43:11.515Z,76.47
2018-11-26T10:45:34.788Z,80.63
2018-11-26T10:48:02.947Z,64.10
2018-11-26T10:50:31.153Z,69.57
2018-11-26T10:52:59.563Z,73.80
2018-11-26T10:55:30.054Z,68.97
2018-11-26T10:57:58.171Z,65.10
2018-11-26T11:00:31.784Z,59.20
2018-11-26T11:02:59.918Z,62.77
2018-11-26T11:05:28.081Z,58.73
2018-11-26T11:07:56.216Z,66.33
2018-11-26T11:10:25.572Z,69.50
2018-11-26T11:12:53.686Z,67.37
2018-11-26T11:15:21.816Z,53.97
2018-11-26T11:17:49.956Z,62.30
2018-11-26T11:20:20.924Z,56.50
2018-11-26T11:22:49.108Z,55.30
2018-11-26T11:25:17.932Z,62.80
2018-11-26T11:27:46.181Z,66.93
2018-11-26T11:30:22.179Z,64.70
2018-11-26T11:32:50.321Z,70.37
2018-11-26T11:35:18.718Z,63.83
2018-11-26T11:37:47.608Z,68.80
2018-11-26T11:40:23.521Z,74.63
2018-11-26T11:42:51.679Z,66.10
2018-11-26T11:45:20.163Z,76.37
2018-11-26T11:47:48.294Z,68.07
2018-11-26T11:50:18.514Z,68.50
2018-11-26T11:52:46.909Z,67.00
2018-11-26T11:55:16.149Z,67.73
2018-11-26T11:57:44.320Z,69.20
2018-11-26T12:00:30.006Z,71.67
2018-11-26T12:02:58.390Z,67.70
2018-11-26T12:05:26.631Z,67.43
2018-11-26T12:07:54.703Z,73.13
2018-11-26T12:10:22.843Z,68.20
2018-11-26T12:12:50.979Z,62.30
2018-11-26T12:15:19.095Z,68.70
2018-11-26T12:17:47.955Z,65.77
2018-11-26T12:20:16.124Z,55.77
2018-11-26T12:22:44.662Z,52.37
2018-11-26T12:25:14.011Z,53.57
2018-11-26T12:27:42.181Z,60.53
2018-11-26T12:30:16.407Z,58.17
2018-11-26T12:32:44.563Z,59.93
2018-11-26T12:35:12.782Z,46.93
2018-11-26T12:37:40.922Z,55.53
2018-11-26T12:40:12.128Z,52.03
2018-11-26T12:42:40.280Z,55.10
2018-11-26T12:45:14.675Z,55.40
2018-11-26T12:47:42.887Z,53.87
2018-11-26T12:50:11.029Z,56.23
2018-11-26T12:52:39.179Z,59.03
2018-11-26T12:55:11.170Z,57.27
2018-11-26T12:57:40.042Z,53.60
2018-11-26T13:00:11.117Z,52.60
2018-11-26T13:02:39.247Z,60.57
2018-11-26T13:05:10.316Z,60.17
2018-11-26T13:07:38.425Z,67.30
2018-11-26T13:10:11.725Z,58.90
2018-11-26T13:12:39.845Z,59.13
2018-11-26T13:15:13.385Z,60.00
2018-11-26T13:17:41.631Z,59.07
2018-11-26T13:20:13.137Z,58.90
2018-11-26T13:22:41.288Z,59.63
2018-11-26T13:25:11.361Z,56.20
2018-11-26T13:27:40.745Z,58.27
2018-11-26T13:30:13.324Z,61.83
2018-11-26T13:32:41.506Z,63.27
2018-11-26T13:35:11.320Z,68.90
2018-11-26T13:37:39.439Z,64.53
2018-11-26T13:40:11.276Z,64.23
2018-11-26T13:42:39.493Z,57.80
2018-11-26T13:45:09.766Z,64.97
2018-11-26T13:47:38.127Z,56.93
2018-11-26T13:50:08.873Z,65.10
2018-11-26T13:52:36.982Z,56.50
2018-11-26T13:55:07.073Z,62.03
2018-11-26T13:57:35.180Z,61.67
2018-11-26T14:00:03.609Z,59.97
2018-11-26T14:02:31.696Z,64.10
2018-11-26T14:04:59.954Z,61.50
2018-11-26T14:07:28.053Z,58.67
2018-11-26T14:09:56.164Z,57.90
2018-11-26T14:12:24.292Z,59.17
2018-11-26T14:14:52.414Z,57.63
2018-11-26T14:17:20.525Z,53.13
2018-11-26T14:19:48.635Z,67.73
2018-11-26T14:22:16.748Z,58.97
2018-11-26T14:24:44.853Z,57.73
2018-11-26T14:27:12.981Z,60.90
2018-11-26T14:29:41.089Z,63.90
2018-11-26T14:32:09.223Z,57.47
2018-11-26T14:34:37.354Z,60.50
2018-11-26T14:37:05.720Z,65.27
2018-11-26T14:39:33.849Z,62.27
2018-11-26T14:42:02.009Z,59.67
2018-11-26T14:44:30.143Z,56.53
2018-11-26T14:46:58.276Z,64.47
2018-11-26T14:49:26.390Z,58.60
2018-11-26T14:51:54.511Z,56.80
2018-11-26T14:54:22.624Z,53.50
2018-11-26T14:56:50.751Z,53.23
2018-11-26T14:59:18.864Z,53.10
2018-11-26T15:01:46.990Z,50.77
2018-11-26T15:04:15.118Z,51.90
2018-11-26T15:06:43.247Z,52.30
2018-11-26T15:09:11.378Z,59.13
2018-11-26T15:11:39.493Z,56.00
2018-11-26T15:14:07.611Z,52.93
2018-11-26T15:16:35.720Z,60.33
2018-11-26T15:19:03.836Z,61.07
2018-11-26T15:21:31.979Z,59.53
2018-11-26T15:24:00.097Z,51.50
2018-11-26T15:26:28.231Z,55.83
2018-11-26T15:28:56.349Z,53.27
2018-11-26T15:31:24.514Z,49.57
2018-11-26T15:33:52.655Z,58.60
2018-11-26T15:36:21.846Z,50.43
2018-11-26T15:38:49.986Z,63.13
2018-11-26T15:41:18.106Z,58.27
2018-11-26T15:43:46.240Z,60.97
2018-11-26T15:46:14.378Z,61.20
2018-11-26T15:48:42.526Z,58.50
2018-11-26T15:51:10.672Z,54.90
2018-11-26T15:53:38.792Z,55.20
2018-11-26T15:56:06.928Z,57.63
2018-11-26T15:58:35.081Z,63.63
2018-11-26T16:01:03.225Z,57.57
2018-11-26T16:03:31.349Z,58.43
2018-11-26T16:05:59.475Z,49.27
2018-11-26T16:08:27.607Z,55.83
2018-11-26T16:10:55.720Z,49.97
2018-11-26T16:13:23.860Z,62.80
2018-11-26T16:15:52.010Z,52.93
2018-11-26T16:18:21.351Z,56.20
2018-11-26T16:20:50.466Z,56.87
2018-11-26T16:23:18.594Z,55.50
2018-11-26T16:25:47.691Z,63.57
2018-11-26T16:28:19.837Z,52.20
2018-11-26T16:30:48.905Z,53.10
2018-11-26T16:33:17.168Z,56.23
2018-11-26T16:35:45.276Z,54.77
2018-11-26T16:38:13.664Z,55.47
2018-11-26T16:40:41.772Z,57.57
2018-11-26T16:43:10.091Z,61.20
2018-11-26T16:45:38.209Z,66.33
2018-11-26T16:48:06.658Z,62.33
2018-11-26T16:50:35.994Z,54.33
2018-11-26T16:53:04.190Z,61.07
2018-11-26T16:55:32.335Z,61.63
2018-11-26T16:58:00.442Z,55.63
2018-11-26T17:00:30.823Z,59.40
2018-11-26T17:03:00.861Z,55.47
2018-11-26T17:05:38.205Z,56.80
2018-11-26T17:08:07.857Z,57.63
2018-11-26T17:10:35.992Z,58.03
2018-11-26T17:13:04.151Z,54.77
2018-11-26T17:15:32.304Z,59.30
2018-11-26T17:18:00.461Z,54.70
2018-11-26T17:20:28.709Z,58.30
2018-11-26T17:22:56.845Z,61.43
2018-11-26T17:25:25.005Z,67.43
2018-11-26T17:27:53.170Z,67.00
2018-11-26T17:30:23.339Z,65.63
2018-11-26T17:32:53.754Z,60.93
2018-11-26T17:35:21.906Z,65.90
2018-11-26T17:37:50.070Z,67.30
2018-11-26T17:40:20.204Z,62.43
2018-11-26T17:42:48.353Z,59.97
2018-11-26T17:45:16.999Z,61.50
2018-11-26T17:47:49.231Z,64.80
2018-11-26T17:50:20.374Z,61.43
2018-11-26T17:52:48.529Z,59.83
2018-11-26T17:55:16.669Z,61.80
2018-11-26T17:57:44.802Z,59.30
2018-11-26T18:00:16.775Z,59.20
2018-11-26T18:02:45.632Z,49.70
2018-11-26T18:05:16.301Z,57.37
2018-11-26T18:07:45.258Z,56.47
2018-11-26T18:10:14.782Z,56.20
2018-11-26T18:12:42.994Z,59.00
2018-11-26T18:15:13.285Z,55.13
2018-11-26T18:17:43.066Z,46.77
2018-11-26T18:20:12.582Z,55.50
2018-11-26T18:22:40.693Z,48.07
2018-11-26T18:25:10.085Z,59.23
2018-11-26T18:27:39.360Z,48.83
2018-11-26T18:30:12.883Z,48.93
2018-11-26T18:32:41.018Z,49.80
2018-11-26T18:35:09.158Z,45.73
2018-11-26T18:37:37.289Z,45.37
2018-11-26T18:40:09.051Z,47.00
2018-11-26T18:42:37.171Z,48.17
2018-11-26T18:45:07.037Z,56.67
2018-11-26T18:47:35.176Z,62.53
2018-11-26T18:50:04.125Z,47.77
2018-11-26T18:52:32.268Z,49.73
2018-11-26T18:55:00.610Z,42.20
2018-11-26T18:57:28.786Z,43.70
2018-11-26T19:00:03.437Z,54.67
2018-11-26T19:02:31.590Z,52.23
2018-11-26T19:04:59.683Z,49.13
2018-11-26T19:07:27.833Z,46.60
2018-11-26T19:09:55.945Z,47.47
2018-11-26T19:12:24.100Z,43.43
2018-11-26T19:14:52.217Z,41.43
2018-11-26T19:17:20.673Z,42.60
2018-11-26T19:19:48.778Z,36.03
2018-11-26T19:22:16.884Z,39.53
2018-11-26T19:24:44.995Z,42.90
2018-11-26T19:27:13.117Z,41.90
2018-11-26T19:29:41.254Z,49.00
2018-11-26T19:32:09.387Z,51.37
2018-11-26T19:34:37.514Z,46.10
2018-11-26T19:37:05.715Z,38.57
2018-11-26T19:39:33.849Z,43.37
2018-11-26T19:42:02.046Z,36.77
2018-11-26T19:44:30.214Z,42.50
2018-11-26T19:46:58.336Z,46.33
2018-11-26T19:49:26.468Z,37.57
2018-11-26T19:51:54.615Z,41.80
2018-11-26T19:54:23.475Z,42.73
2018-11-26T19:56:51.592Z,41.13
2018-11-26T19:59:19.733Z,38.73
2018-11-26T20:01:47.860Z,39.60
2018-11-26T20:04:27.788Z,36.97
2018-11-26T20:06:55.916Z,40.50
2018-11-26T20:09:24.031Z,33.57
2018-11-26T20:11:52.192Z,34.63
2018-11-26T20:14:25.633Z,30.40
2018-11-26T20:16:48.455Z,36.30
2018-11-26T20:19:16.588Z,39.60
2018-11-26T20:21:44.720Z,34.80
2018-11-26T20:24:12.863Z,35.60
2018-11-26T20:26:41.003Z,34.70
2018-11-26T20:29:09.120Z,37.50
2018-11-26T20:31:37.262Z,35.90
2018-11-26T20:34:05.548Z,38.73
2018-11-26T20:36:33.664Z,37.00
2018-11-26T20:39:01.801Z,35.20
2018-11-26T20:41:29.913Z,34.70
2018-11-26T20:43:58.042Z,36.10
2018-11-26T20:46:26.140Z,33.37
2018-11-26T20:48:54.258Z,34.53
2018-11-26T20:51:22.415Z,38.77
2018-11-26T20:53:50.540Z,32.87
2018-11-26T20:56:18.672Z,32.27
2018-11-26T20:58:47.323Z,34.63
2018-11-26T21:01:15.453Z,35.20
2018-11-26T21:03:43.571Z,42.23
2018-11-26T21:06:11.851Z,38.80
2018-11-26T21:08:39.835Z,40.50
2018-11-26T21:11:07.937Z,36.33
2018-11-26T21:13:36.060Z,35.27
2018-11-26T21:16:04.158Z,38.40
2018-11-26T21:18:32.267Z,38.80
2018-11-26T21:21:00.372Z,36.63
2018-11-26T21:23:30.097Z,30.63
2018-11-26T21:25:59.788Z,37.53
2018-11-26T21:28:27.903Z,41.40
2018-11-26T21:30:56.075Z,36.43
2018-11-26T21:33:24.216Z,35.03
2018-11-26T21:35:52.350Z,40.73
2018-11-26T21:38:20.523Z,34.77
2018-11-26T21:40:48.674Z,38.13
2018-11-26T21:43:16.820Z,40.03
2018-11-26T21:45:53.641Z,39.17
2018-11-26T21:48:21.819Z,39.87
2018-11-26T21:50:49.934Z,38.20
2018-11-26T21:53:18.070Z,37.37
2018-11-26T21:55:46.203Z,43.63
2018-11-26T21:58:14.321Z,38.20
2018-11-26T22:00:42.843Z,40.40
2018-11-26T22:03:12.093Z,44.07
2018-11-26T22:05:41.568Z,44.53
2018-11-26T22:08:10.738Z,48.60
2018-11-26T22:10:40.965Z,51.80
2018-11-26T22:13:10.761Z,50.73
2018-11-26T22:15:38.885Z,54.40
2018-11-26T22:18:07.539Z,50.00
2018-11-26T22:20:35.723Z,58.33
2018-11-26T22:23:03.917Z,59.00
2018-11-26T22:25:32.076Z,56.13
2018-11-26T22:28:00.199Z,53.57
2018-11-26T22:30:29.900Z,64.10
2018-11-26T22:32:58.013Z,57.40
2018-11-26T22:35:26.165Z,52.10
2018-11-26T22:37:54.260Z,62.77
2018-11-26T22:40:23.514Z,53.27
2018-11-26T22:42:51.693Z,59.83
2018-11-26T22:45:24.481Z,53.20
2018-11-26T22:47:56.913Z,57.63
2018-11-26T22:50:25.042Z,57.57
2018-11-26T22:52:53.143Z,48.00
2018-11-26T22:55:21.304Z,58.03
2018-11-26T22:57:49.397Z,56.90
2018-11-26T23:00:27.568Z,57.00
2018-11-26T23:02:58.849Z,55.93
2018-11-26T23:05:27.250Z,52.20
2018-11-26T23:07:55.373Z,57.87
2018-11-26T23:10:23.496Z,59.40
2018-11-26T23:12:51.629Z,50.77
2018-11-26T23:15:19.912Z,63.50
2018-11-26T23:17:48.449Z,53.80
2018-11-26T23:20:17.567Z,54.50
2018-11-26T23:22:45.673Z,53.53
2018-11-26T23:25:16.886Z,56.03
2018-11-26T23:27:45.025Z,56.90
2018-11-26T23:30:19.336Z,53.27
2018-11-26T23:32:48.620Z,54.33
2018-11-26T23:35:16.926Z,56.13
2018-11-26T23:37:45.046Z,54.93
2018-11-26T23:40:13.600Z,61.63
2018-11-26T23:42:41.688Z,54.40
2018-11-26T23:45:12.975Z,57.73
2018-11-26T23:47:41.069Z,55.57
2018-11-26T23:50:10.258Z,48.33
2018-11-26T23:52:39.026Z,55.00
2018-11-26T23:55:08.533Z,54.87
2018-11-26T23:57:36.650Z,54.00
